Time;durP1;ratioP1;P1;durP2;ratioP2;P2;SDS_P1;SDS_P2;PMS_P1;PMS_P2;Temp;Humidity;BMP_temperature;BMP_pressure;BME280_temperature;BME280_humidity;BME280_pressure;Samples;Min_cycle;Max_cycle;Signal;HPM_P1;HPM_P2
2023/06/01 04:44:41;;;;;;;11.77;8.07;;;;;;;;;;5114818;27;20564;-80
2023/06/01 04:52:47;;;;;;;10.60;7.40;;;;;;;;;;5136171;27;20759;-80
2023/06/01 05:01:14;;;;;;;12.13;8.37;;;;;;;;;;5079097;28;20945;-81
2023/06/01 05:07:59;;;;;;;16.27;8.23;;;;;;;;;;5134438;27;20301;-80
2023/06/01 05:14:37;;;;;;;14.73;9.23;;;;;;;;;;5087501;28;20433;-78
2023/06/01 05:19:59;;;;;;;14.77;8.77;;;12.60;99.90;;;;;;5134798;27;20264;-80
2023/06/01 05:26:01;;;;;;;14.23;9.03;;;;;;;;;;5156770;27;20282;-78
2023/06/01 05:31:50;;;;;;;14.33;8.60;;;13.20;99.90;;;;;;5038297;28;20604;-78
2023/06/01 05:36:28;;;;;;;14.67;8.37;;;;;;;;;;5177804;27;20388;-79
2023/06/01 05:41:27;;;;;;;10.93;7.63;;;13.60;99.90;;;;;;5074636;28;20542;-80
2023/06/01 05:46:21;;;;;;;12.17;7.70;;;13.70;99.90;;;;;;5175130;27;20867;-79
2023/06/01 05:51:17;;;;;;;17.27;8.20;;;13.80;99.90;;;;;;5073925;28;20577;-79
2023/06/01 05:56:13;;;;;;;10.97;6.87;;;14.00;99.90;;;;;;5138035;27;20288;-79
2023/06/01 06:01:10;;;;;;;12.07;8.03;;;14.10;99.90;;;;;;5143808;27;20364;-79
2023/06/01 06:06:01;;;;;;;17.93;8.27;;;14.30;99.90;;;;;;5133351;27;20650;-80
2023/06/01 06:10:52;;;;;;;15.63;8.43;;;14.50;99.90;;;;;;5133238;27;20279;-76
2023/06/01 06:15:44;;;;;;;18.07;9.70;;;14.80;99.90;;;;;;5134250;27;20293;-78
2023/06/01 06:19:36;;;;;;;14.43;8.43;;;14.90;99.90;;;;;;5137513;27;20268;-78
2023/06/01 06:23:32;;;;;;;12.50;8.33;;;14.90;99.90;;;;;;5133309;27;20286;-78
2023/06/01 06:27:27;;;;;;;13.17;8.23;;;15.10;99.90;;;;;;5133085;27;20277;-78
2023/06/01 06:31:23;;;;;;;16.97;8.37;;;15.50;99.90;;;;;;5133641;27;20625;-78
2023/06/01 06:35:20;;;;;;;17.67;7.77;;;15.70;99.90;;;;;;5132964;27;20290;-77
2023/06/01 06:39:21;;;;;;;19.30;7.60;;;15.70;99.90;;;;;;5122255;27;20284;-76
2023/06/01 06:43:19;;;;;;;20.67;8.03;;;15.90;99.90;;;;;;5171311;27;20276;-78
2023/06/01 06:47:19;;;;;;;18.70;8.37;;;15.80;99.90;;;;;;5072402;28;20557;-77
2023/06/01 06:51:13;;;;;;;12.50;7.13;;;15.90;99.90;;;;;;5131433;27;20303;-77
2023/06/01 06:55:14;;;;;;;10.00;7.30;;;;;;;;;;5072431;28;21129;-79
2023/06/01 06:59:14;;;;;;;9.97;6.90;;;16.20;99.90;;;;;;5132726;27;20267;-75
2023/06/01 07:03:12;;;;;;;12.07;7.73;;;16.30;99.90;;;;;;5132075;27;20273;-77
2023/06/01 07:07:14;;;;;;;18.43;8.17;;;16.50;99.90;;;;;;5154524;27;20623;-78
2023/06/01 07:11:13;;;;;;;22.63;7.50;;;16.70;99.90;;;;;;5116327;27;20285;-77
2023/06/01 07:15:10;;;;;;;16.77;8.20;;;16.90;99.90;;;;;;5133752;27;20305;-78
2023/06/01 07:17:36;;;;;;;16.00;7.80;;;17.10;99.90;;;;;;5133654;27;20696;-78
2023/06/01 07:22:07;;;;;;;15.30;7.73;;;17.20;99.90;;;;;;5098181;28;20622;-78
2023/06/01 07:24:33;;;;;;;17.93;8.00;;;17.30;99.90;;;;;;5101018;28;20681;-79
2023/06/01 07:29:08;;;;;;;11.13;6.97;;;;;;;;;;5093610;28;20606;-80
2023/06/01 07:31:35;;;;;;;13.17;7.47;;;17.60;99.90;;;;;;5100639;28;20179;-82
2023/06/01 07:34:00;;;;;;;13.43;7.60;;;17.70;99.90;;;;;;5098161;28;20215;-78
2023/06/01 07:36:26;;;;;;;12.87;8.77;;;17.80;99.90;;;;;;5096571;28;20171;-77
2023/06/01 07:38:52;;;;;;;11.07;7.63;;;17.90;99.90;;;;;;5093653;28;20646;-82
2023/06/01 07:41:17;;;;;;;11.70;7.13;;;17.90;99.90;;;;;;5092170;28;20172;-78
2023/06/01 07:43:43;;;;;;;12.10;7.60;;;18.00;99.90;;;;;;5088079;28;20180;-79
2023/06/01 07:46:09;;;;;;;9.07;6.87;;;18.20;99.90;;;;;;5070454;28;20242;-77
2023/06/01 07:48:37;;;;;;;9.03;7.10;;;18.40;99.90;;;;;;5072919;28;20204;-77
2023/06/01 07:51:03;;;;;;;7.57;6.20;;;18.50;99.90;;;;;;5070435;28;20177;-76
2023/06/01 07:53:31;;;;;;;9.07;6.77;;;18.70;99.90;;;;;;5070699;28;20165;-77
2023/06/01 07:55:56;;;;;;;14.00;7.20;;;18.70;99.90;;;;;;5071182;28;20193;-77
2023/06/01 07:58:22;;;;;;;9.83;7.20;;;18.80;99.90;;;;;;5069446;28;20196;-78
2023/06/01 08:00:48;;;;;;;17.80;7.63;;;18.90;99.90;;;;;;5066947;28;20185;-77
2023/06/01 08:03:14;;;;;;;12.73;7.73;;;19.00;99.90;;;;;;5069979;28;20184;-77
2023/06/01 08:05:42;;;;;;;14.27;7.00;;;19.20;99.90;;;;;;5070134;28;20197;-77
2023/06/01 08:08:08;;;;;;;9.53;6.77;;;19.30;99.90;;;;;;5070770;28;20571;-77
2023/06/01 08:10:35;;;;;;;16.93;7.33;;;19.40;99.90;;;;;;5083227;28;20169;-78
2023/06/01 08:13:02;;;;;;;9.80;6.57;;;19.50;99.90;;;;;;5085150;28;20166;-78
2023/06/01 08:15:28;;;;;;;9.07;6.80;;;19.60;99.90;;;;;;5073951;28;20205;-76
2023/06/01 08:17:54;;;;;;;11.00;7.30;;;19.80;99.90;;;;;;5070581;28;20188;-76
2023/06/01 08:20:21;;;;;;;13.03;7.13;;;20.00;99.90;;;;;;5068354;28;20182;-77
2023/06/01 08:22:48;;;;;;;12.73;7.63;;;20.20;99.90;;;;;;5070883;28;20199;-83
2023/06/01 08:25:16;;;;;;;17.93;7.20;;;20.30;99.90;;;;;;5074770;28;20212;-77
2023/06/01 08:27:43;;;;;;;9.00;6.70;;;20.50;99.90;;;;;;5068816;28;20265;-76
2023/06/01 08:30:10;;;;;;;11.27;5.70;;;20.70;99.90;;;;;;5068805;28;20179;-77
2023/06/01 08:32:35;;;;;;;10.20;7.07;;;21.00;99.90;;;;;;5069745;28;20677;-77
2023/06/01 08:35:01;;;;;;;7.70;6.40;;;21.20;99.90;;;;;;5069787;28;20189;-76
2023/06/01 08:37:26;;;;;;;9.90;7.00;;;21.30;99.90;;;;;;5070719;28;20542;-77
2023/06/01 08:39:52;;;;;;;9.27;6.97;;;21.40;99.90;;;;;;5060068;28;20187;-77
2023/06/01 08:42:33;;;;;;;14.70;7.63;;;21.40;99.90;;;;;;5054718;28;20659;-76
2023/06/01 08:44:59;;;;;;;10.30;6.30;;;21.60;99.90;;;;;;5055190;28;20204;-77
2023/06/01 08:47:26;;;;;;;10.03;6.13;;;21.70;99.90;;;;;;5066938;28;20212;-77
2023/06/01 08:49:53;;;;;;;8.43;6.23;;;21.90;99.90;;;;;;5077318;28;20174;-77
2023/06/01 08:52:21;;;;;;;10.97;7.33;;;22.00;99.90;;;;;;5078364;28;20465;-78
2023/06/01 08:54:46;;;;;;;9.33;6.40;;;22.20;99.90;;;;;;5076722;28;20185;-77
2023/06/01 08:57:13;;;;;;;9.87;6.57;;;22.40;99.90;;;;;;5076357;28;20183;-77
2023/06/01 08:59:39;;;;;;;9.10;6.50;;;22.50;99.90;;;;;;5076269;28;20187;-77
2023/06/01 09:02:05;;;;;;;7.83;6.00;;;22.60;99.90;;;;;;5061551;28;20182;-77
2023/06/01 09:04:37;;;;;;;9.57;6.37;;;22.70;99.90;;;;;;5054671;28;20275;-75
2023/06/01 09:07:03;;;;;;;8.67;6.63;;;22.70;99.90;;;;;;5055560;28;20202;-75
2023/06/01 09:09:29;;;;;;;11.73;6.90;;;22.90;99.90;;;;;;5057197;28;20212;-77
2023/06/01 09:12:16;;;;;;;9.07;6.07;;;22.90;99.90;;;;;;5055904;28;20528;-76
2023/06/01 09:14:42;;;;;;;11.83;6.60;;;23.10;99.90;;;;;;5054624;28;20200;-75
2023/06/01 09:17:22;;;;;;;9.30;7.30;;;23.20;99.90;;;;;;5055902;28;20261;-77
2023/06/01 09:19:50;;;;;;;7.87;6.47;;;23.10;99.90;;;;;;5055611;28;20204;-77
2023/06/01 09:22:15;;;;;;;10.90;6.57;;;23.30;99.90;;;;;;5054086;28;20277;-79
2023/06/01 09:24:54;;;;;;;9.07;6.33;;;23.60;99.90;;;;;;5061828;28;20658;-77
2023/06/01 09:27:20;;;;;;;6.50;5.83;;;23.80;99.90;;;;;;5071378;28;20216;-78
2023/06/01 09:29:53;;;;;;;13.80;6.73;;;24.00;99.90;;;;;;5074712;28;20175;-79
2023/06/01 09:32:21;;;;;;;8.40;6.00;;;24.00;99.90;;;;;;5077753;28;20161;-78
2023/06/01 09:34:47;;;;;;;11.47;6.63;;;24.10;99.90;;;;;;5077103;28;20721;-80
2023/06/01 09:37:13;;;;;;;11.80;6.30;;;24.20;99.90;;;;;;5076327;28;20251;-78
2023/06/01 09:39:39;;;;;;;8.17;5.10;;;24.30;99.90;;;;;;5073992;28;20213;-78
2023/06/01 09:42:09;;;;;;;14.30;6.20;;;24.40;99.90;;;;;;5065438;28;20182;-77
2023/06/01 09:44:39;;;;;;;9.53;6.20;;;24.70;99.90;;;;;;5059233;28;20186;-77
2023/06/01 09:47:13;;;;;;;11.57;5.07;;;24.90;99.90;;;;;;5073842;28;20288;-79
2023/06/01 09:49:43;;;;;;;9.90;4.90;;;25.10;99.90;;;;;;5075643;28;20162;-79
2023/06/01 09:52:14;;;;;;;8.90;4.83;;;25.40;99.90;;;;;;5069032;28;20181;-76
2023/06/01 09:54:45;;;;;;;5.73;4.87;;;25.40;99.90;;;;;;5046987;28;20225;-76
2023/06/01 09:57:12;;;;;;;6.63;5.23;;;25.40;99.90;;;;;;5055326;28;20236;-79
2023/06/01 09:59:45;;;;;;;8.20;5.20;;;25.60;99.90;;;;;;5056216;28;20178;-80
2023/06/01 10:02:22;;;;;;;7.00;4.90;;;25.60;98.50;;;;;;5057814;28;20174;-81
2023/06/01 10:04:52;;;;;;;5.90;5.00;;;25.70;99.90;;;;;;5056121;28;20201;-79
2023/06/01 10:07:19;;;;;;;5.93;5.17;;;25.80;99.10;;;;;;5058145;28;20205;-80
2023/06/01 10:09:55;;;;;;;8.63;5.70;;;26.10;99.90;;;;;;5066570;28;20170;-81
2023/06/01 10:12:22;;;;;;;11.57;5.80;;;26.30;99.20;;;;;;5059245;28;20177;-81
2023/06/01 10:14:49;;;;;;;9.70;5.30;;;26.30;99.90;;;;;;5037890;28;20198;-81
2023/06/01 10:17:16;;;;;;;7.87;4.80;;;26.60;99.90;;;;;;5057112;28;20204;-83
2023/06/01 10:19:42;;;;;;;10.43;6.13;;;26.80;99.20;;;;;;5061008;28;20172;-79
2023/06/01 10:22:10;;;;;;;6.77;4.37;;;26.80;96.40;;;;;;5059133;28;21226;-79
2023/06/01 10:24:41;;;;;;;5.87;4.40;;;26.60;96.50;;;;;;5062680;28;20291;-79
2023/06/01 10:27:23;;;;;;;8.07;5.23;;;26.70;96.40;;;;;;5067418;28;20318;-79
2023/06/01 10:29:51;;;;;;;10.50;5.27;;;27.10;97.40;;;;;;5048089;28;20185;-78
2023/06/01 10:32:43;;;;;;;6.90;4.60;;;26.90;97.40;;;;;;5040967;28;20267;-77
2023/06/01 10:35:11;;;;;;;6.47;5.07;;;27.10;94.80;;;;;;5055382;28;20195;-76
2023/06/01 10:37:37;;;;;;;7.07;4.53;;;26.80;96.90;;;;;;5054039;28;20209;-77
2023/06/01 10:40:18;;;;;;;9.37;5.10;;;26.60;97.50;;;;;;5053076;28;20209;-77
2023/06/01 10:42:44;;;;;;;12.20;5.30;;;26.60;98.60;;;;;;5055144;28;20230;-80
2023/06/01 10:45:41;;;;;;;7.67;4.83;;;27.00;97.70;;;;;;5067591;28;20188;-78
2023/06/01 10:48:11;;;;;;;6.27;5.10;;;27.30;96.10;;;;;;5083744;28;20216;-78
2023/06/01 10:50:39;;;;;;;7.97;4.60;;;27.40;94.50;;;;;;5087548;28;20192;-77
2023/06/01 10:53:23;;;;;;;8.27;5.00;;;27.70;95.70;;;;;;5062247;28;20181;-78
2023/06/01 10:56:26;;;;;;;7.23;5.00;;;28.20;97.40;;;;;;5054243;28;20228;-77
2023/06/01 10:59:06;;;;;;;6.60;4.60;;;28.50;97.90;;;;;;5055417;28;20177;-79
2023/06/01 11:01:39;;;;;;;7.03;4.77;;;28.40;93.20;;;;;;5062371;28;20654;-79
2023/06/01 11:04:05;;;;;;;5.37;4.63;;;28.30;94.20;;;;;;5035302;28;20246;-80
2023/06/01 11:06:35;;;;;;;8.80;4.67;;;28.20;92.80;;;;;;5049497;28;20234;-80
2023/06/01 11:09:05;;;;;;;6.07;5.10;;;28.00;91.20;;;;;;5055765;28;20228;-79
2023/06/01 11:11:51;;;;;;;6.60;4.70;;;27.90;92.20;;;;;;5055954;28;20215;-78
2023/06/01 11:14:25;;;;;;;5.57;4.83;;;28.10;94.10;;;;;;5055701;28;20188;-81
2023/06/01 11:16:55;;;;;;;6.50;4.90;;;28.30;94.30;;;;;;5056822;28;20226;-80
2023/06/01 11:19:25;;;;;;;6.60;5.17;;;28.60;90.70;;;;;;5056797;28;20215;-79
2023/06/01 11:22:03;;;;;;;7.13;4.73;;;28.40;82.30;;;;;;5054725;28;20653;-79
2023/06/01 11:24:36;;;;;;;6.60;5.23;;;28.70;93.40;;;;;;5035504;28;20620;-78
2023/06/01 11:27:08;;;;;;;5.30;4.80;;;28.70;86.30;;;;;;5038341;28;20182;-78
2023/06/01 11:29:34;;;;;;;7.10;4.67;;;28.80;90.40;;;;;;5034476;28;20253;-76
2023/06/01 11:32:01;;;;;;;6.10;4.83;;;29.30;87.50;;;;;;5035019;28;20717;-77
2023/06/01 11:34:37;;;;;;;6.13;4.97;;;29.60;88.50;;;;;;5039688;28;20251;-77
2023/06/01 11:37:03;;;;;;;11.13;4.63;;;30.00;84.90;;;;;;5064353;28;20184;-76
2023/06/01 11:39:29;;;;;;;7.33;4.80;;;30.70;84.20;;;;;;5072776;28;20177;-77
2023/06/01 11:42:19;;;;;;;6.10;4.40;;;30.80;79.10;;;;;;5072255;28;20184;-76
2023/06/01 11:44:55;;;;;;;8.17;4.53;;;30.70;81.40;;;;;;5062416;28;20303;-78
2023/06/01 11:47:21;;;;;;;12.53;4.70;;;30.70;82.90;;;;;;5073446;28;20189;-76
2023/06/01 11:49:48;;;;;;;5.57;4.40;;;30.50;74.30;;;;;;5073411;28;20179;-76
2023/06/01 11:52:15;;;;;;;10.03;4.73;;;30.60;80.20;;;;;;5072459;28;20667;-77
2023/06/01 11:54:41;;;;;;;6.40;4.07;;;30.90;84.70;;;;;;5059621;28;20199;-77
2023/06/01 11:57:08;;;;;;;13.67;5.27;;;31.50;80.70;;;;;;5056622;28;20207;-80
2023/06/01 11:59:41;;;;;;;8.30;4.60;;;31.70;74.50;;;;;;5052353;28;20191;-78
2023/06/01 12:02:26;;;;;;;7.57;4.70;;;30.90;76.60;;;;;;5055277;28;20226;-80
2023/06/01 12:05:05;;;;;;;12.90;4.93;;;29.00;73.30;;;;;;5054883;28;20262;-79
2023/06/01 12:07:32;;;;;;;8.23;4.57;;;28.90;77.30;;;;;;5054625;28;20741;-79
2023/06/01 12:10:01;;;;;;;7.13;4.13;;;29.80;82.20;;;;;;5054434;28;20271;-79
2023/06/01 12:12:29;;;;;;;8.27;4.97;;;30.50;78.20;;;;;;5055116;28;20496;-79
2023/06/01 12:14:55;;;;;;;7.53;4.60;;;31.10;74.10;;;;;;5057135;28;20192;-79
2023/06/01 12:17:21;;;;;;;6.27;4.57;;;31.30;70.90;;;;;;5058576;28;20176;-79
2023/06/01 12:19:50;;;;;;;4.73;4.30;;;31.80;74.30;;;;;;5058748;28;20222;-80
2023/06/01 12:22:17;;;;;;;9.83;5.13;;;32.50;76.20;;;;;;5058457;28;20187;-78
2023/06/01 12:24:46;;;;;;;6.47;4.63;;;32.70;71.50;;;;;;5058194;28;20195;-79
2023/06/01 12:27:16;;;;;;;5.77;5.07;;;32.80;68.00;;;;;;5058286;28;20245;-79
2023/06/01 12:29:45;;;;;;;8.07;4.13;;;32.70;67.00;;;;;;5060118;28;20218;-78
2023/06/01 12:32:12;;;;;;;8.10;4.60;;;32.40;65.00;;;;;;5061933;28;20232;-78
2023/06/01 12:34:39;;;;;;;8.20;4.23;;;32.40;70.80;;;;;;5059947;28;20687;-80
2023/06/01 12:37:17;;;;;;;6.43;4.37;;;32.50;67.90;;;;;;5058777;28;20177;-81
2023/06/01 12:39:52;;;;;;;8.13;4.50;;;32.20;69.00;;;;;;5059147;28;20170;-79
2023/06/01 12:42:18;;;;;;;6.93;4.83;;;31.90;63.10;;;;;;5060912;28;20189;-80
2023/06/01 12:44:46;;;;;;;6.30;4.53;;;31.60;68.20;;;;;;5058730;28;20199;-79
2023/06/01 12:47:12;;;;;;;7.20;4.80;;;32.00;67.60;;;;;;5058583;28;20266;-80
2023/06/01 12:49:39;;;;;;;11.33;4.67;;;32.30;66.00;;;;;;5058064;28;20631;-79
2023/06/01 12:52:05;;;;;;;7.20;4.53;;;32.80;61.10;;;;;;5057861;28;20511;-79
2023/06/01 12:54:31;;;;;;;8.57;4.57;;;33.10;64.40;;;;;;5058929;28;20658;-79
2023/06/01 12:56:57;;;;;;;6.60;4.43;;;33.10;64.00;;;;;;5059350;28;20188;-79
2023/06/01 12:59:23;;;;;;;5.60;4.07;;;32.70;63.00;;;;;;5057708;28;20679;-80
2023/06/01 13:01:48;;;;;;;5.03;4.07;;;32.70;64.40;;;;;;5057472;28;20180;-79
2023/06/01 13:04:14;;;;;;;7.63;4.30;;;30.40;66.30;;;;;;5057432;28;20184;-79
2023/06/01 13:06:40;;;;;;;5.17;3.90;;;32.70;69.30;;;;;;5076494;28;20177;-79
2023/06/01 13:09:07;;;;;;;6.73;4.33;;;32.60;62.90;;;;;;5090868;28;20221;-78
2023/06/01 13:11:32;;;;;;;6.33;3.83;;;31.60;63.20;;;;;;5083155;28;20175;-76
2023/06/01 13:13:58;;;;;;;9.57;4.67;;;31.20;63.40;;;;;;5079533;28;20197;-77
2023/06/01 13:16:24;;;;;;;8.00;4.33;;;31.20;62.10;;;;;;5057428;28;20209;-76
2023/06/01 13:18:50;;;;;;;7.67;4.33;;;31.10;62.20;;;;;;5053602;28;20199;-79
2023/06/01 13:21:17;;;;;;;7.23;4.70;;;30.30;64.50;;;;;;5057298;28;20181;-79
2023/06/01 13:23:43;;;;;;;8.07;4.20;;;30.40;70.20;;;;;;5057106;28;20636;-78
2023/06/01 13:26:09;;;;;;;9.80;4.50;;;30.80;63.50;;;;;;5055812;28;20212;-80
2023/06/01 13:28:35;;;;;;;8.63;4.53;;;30.80;61.50;;;;;;5056731;28;20218;-78
2023/06/01 13:31:01;;;;;;;6.03;3.97;;;30.70;64.80;;;;;;5056281;28;20188;-80
2023/06/01 13:33:27;;;;;;;14.27;4.30;;;31.10;68.70;;;;;;5056055;28;20662;-80
2023/06/01 13:35:53;;;;;;;6.30;4.43;;;31.30;64.40;;;;;;5056870;28;20197;-79
2023/06/01 13:38:18;;;;;;;6.00;4.17;;;31.60;61.60;;;;;;5057120;28;20176;-79
2023/06/01 13:40:44;;;;;;;6.37;4.00;;;31.80;65.80;;;;;;5068128;28;20189;-80
2023/06/01 13:43:10;;;;;;;4.80;4.00;;;32.00;59.30;;;;;;5077653;28;20224;-81
2023/06/01 13:45:36;;;;;;;8.33;4.60;;;32.00;57.00;;;;;;5077394;28;20210;-79
2023/06/01 13:48:01;;;;;;;8.03;4.67;;;31.70;57.00;;;;;;5078070;28;20197;-80
2023/06/01 13:50:27;;;;;;;8.70;4.20;;;31.40;58.30;;;;;;5078388;28;20546;-79
2023/06/01 13:52:53;;;;;;;7.33;4.10;;;31.70;63.70;;;;;;5077966;28;20170;-79
2023/06/01 13:55:19;;;;;;;6.53;4.00;;;32.00;58.40;;;;;;5065549;28;20303;-79
2023/06/01 13:57:45;;;;;;;13.40;4.37;;;31.60;58.80;;;;;;5061417;28;20195;-79
2023/06/01 14:00:12;;;;;;;6.37;4.13;;;31.60;60.70;;;;;;5057293;28;20174;-79
2023/06/01 14:02:37;;;;;;;7.83;3.87;;;31.50;61.00;;;;;;5055622;28;20250;-78
2023/06/01 14:05:04;;;;;;;5.40;3.70;;;31.80;56.60;;;;;;5064419;28;20207;-78
2023/06/01 14:07:30;;;;;;;8.60;3.90;;;32.10;66.60;;;;;;5076232;28;20193;-78
2023/06/01 14:09:56;;;;;;;8.20;4.40;;;32.30;57.40;;;;;;5076381;28;20183;-78
2023/06/01 14:12:22;;;;;;;3.93;3.57;;;31.90;58.00;;;;;;5076936;28;20183;-78
2023/06/01 14:14:47;;;;;;;7.63;4.10;;;32.00;57.20;;;;;;5073927;28;20313;-78
2023/06/01 14:17:13;;;;;;;4.50;4.10;;;32.00;60.70;;;;;;5075305;28;20183;-81
2023/06/01 14:19:39;;;;;;;15.93;4.03;;;31.60;56.90;;;;;;5075246;28;20183;-80
2023/06/01 14:22:05;;;;;;;8.33;3.93;;;30.70;57.50;;;;;;5076719;28;20626;-78
2023/06/01 14:24:30;;;;;;;5.97;3.67;;;30.40;59.40;;;;;;5075349;28;20188;-80
2023/06/01 14:26:56;;;;;;;5.97;3.67;;;30.30;61.80;;;;;;5076677;28;20175;-81
2023/06/01 14:29:22;;;;;;;8.80;4.10;;;30.30;59.20;;;;;;5072792;28;20163;-80
2023/06/01 14:31:47;;;;;;;14.03;4.93;;;30.30;58.20;;;;;;5057123;28;20171;-79
2023/06/01 14:34:13;;;;;;;8.67;3.63;;;30.60;58.70;;;;;;5055895;28;20219;-78
2023/06/01 14:36:40;;;;;;;10.97;4.47;;;30.90;60.10;;;;;;5059470;28;20203;-78
2023/06/01 14:39:06;;;;;;;6.00;3.67;;;31.20;57.70;;;;;;5061983;28;20225;-77
2023/06/01 14:41:32;;;;;;;6.03;3.80;;;31.50;58.80;;;;;;5061338;28;20586;-78
2023/06/01 14:43:57;;;;;;;6.27;3.87;;;31.90;59.40;;;;;;5054847;28;20181;-78
2023/06/01 14:46:23;;;;;;;5.07;3.77;;;32.00;61.30;;;;;;5053945;28;20207;-77
2023/06/01 14:48:49;;;;;;;6.20;4.13;;;31.70;53.80;;;;;;5056044;28;20219;-77
2023/06/01 14:51:14;;;;;;;11.63;4.30;;;31.70;59.30;;;;;;5054771;28;20665;-77
2023/06/01 14:53:40;;;;;;;7.47;3.93;;;31.60;55.00;;;;;;5056169;28;20262;-77
2023/06/01 14:56:06;;;;;;;5.87;3.63;;;31.70;59.40;;;;;;5054654;28;20204;-77
2023/06/01 14:58:32;;;;;;;6.73;3.63;;;31.90;54.50;;;;;;5055242;28;20652;-77
2023/06/01 15:00:58;;;;;;;9.17;3.43;;;31.90;58.70;;;;;;5055682;28;20180;-78
2023/06/01 15:03:24;;;;;;;7.20;3.50;;;32.00;56.60;;;;;;5056689;28;20610;-78
2023/06/01 15:05:51;;;;;;;5.70;3.50;;;31.90;56.30;;;;;;5074304;28;20226;-77
2023/06/01 15:08:19;;;;;;;5.60;3.93;;;31.90;58.20;;;;;;5075436;28;20516;-79
2023/06/01 15:10:45;;;;;;;5.37;3.00;;;32.00;57.20;;;;;;5076093;28;20489;-79
2023/06/01 15:13:12;;;;;;;5.23;3.77;;;31.90;55.90;;;;;;5076698;28;20199;-78
2023/06/01 15:15:39;;;;;;;3.77;3.00;;;31.40;53.30;;;;;;5055198;28;20204;-78
2023/06/01 15:18:05;;;;;;;8.47;3.63;;;31.00;53.90;;;;;;5055655;28;20172;-78
2023/06/01 15:20:30;;;;;;;6.43;3.53;;;30.70;54.40;;;;;;5053802;28;20254;-78
2023/06/01 15:22:56;;;;;;;4.80;3.60;;;30.70;55.90;;;;;;5055338;28;20535;-77
2023/06/01 15:25:22;;;;;;;6.33;3.60;;;30.20;56.30;;;;;;5055805;28;20330;-78
2023/06/01 15:27:48;;;;;;;3.87;3.23;;;29.80;56.70;;;;;;5054660;28;20210;-79
2023/06/01 15:30:13;;;;;;;4.00;3.50;;;30.00;59.10;;;;;;5054632;28;20186;-78
2023/06/01 15:32:39;;;;;;;4.00;2.97;;;30.40;54.50;;;;;;5056006;28;20249;-78
2023/06/01 15:35:05;;;;;;;4.60;3.43;;;30.40;58.10;;;;;;5055559;28;20197;-80
2023/06/01 15:37:31;;;;;;;4.83;3.03;;;30.30;56.30;;;;;;5058272;28;20191;-78
2023/06/01 15:39:56;;;;;;;6.93;3.47;;;29.80;56.80;;;;;;5064349;28;20174;-78
2023/06/01 15:42:22;;;;;;;4.47;3.33;;;29.40;55.80;;;;;;5054001;28;20540;-77
2023/06/01 15:44:48;;;;;;;3.93;3.27;;;29.50;55.00;;;;;;5066808;28;20213;-77
2023/06/01 15:47:13;;;;;;;4.37;3.33;;;29.40;59.00;;;;;;5074226;28;20171;-79
2023/06/01 15:49:40;;;;;;;5.17;3.40;;;29.40;57.10;;;;;;5077728;28;20173;-78
2023/06/01 15:52:06;;;;;;;3.53;3.23;;;29.50;57.60;;;;;;5088808;28;20252;-78
2023/06/01 15:54:32;;;;;;;5.03;3.87;;;29.40;55.50;;;;;;5070244;28;20344;-78
2023/06/01 15:56:58;;;;;;;4.30;3.03;;;29.40;56.80;;;;;;5064912;28;20169;-76
2023/06/01 15:59:24;;;;;;;8.67;3.63;;;29.40;54.90;;;;;;5059761;28;20169;-82
2023/06/01 16:01:50;;;;;;;5.50;3.40;;;29.30;56.60;;;;;;5056117;28;20269;-80
2023/06/01 16:04:16;;;;;;;10.57;3.83;;;29.00;57.70;;;;;;5039945;28;20174;-77
2023/06/01 16:06:42;;;;;;;4.93;3.30;;;28.50;54.50;;;;;;5039679;28;20720;-80
2023/06/01 16:09:08;;;;;;;6.97;4.13;;;28.20;60.60;;;;;;5053206;28;20248;-78
2023/06/01 16:11:34;;;;;;;4.80;3.67;;;28.00;56.60;;;;;;5057994;28;20602;-77
2023/06/01 16:14:00;;;;;;;7.80;3.93;;;27.70;58.60;;;;;;5057915;28;20174;-78
2023/06/01 16:16:26;;;;;;;5.40;3.60;;;27.30;60.80;;;;;;5058373;28;20284;-80
2023/06/01 16:18:52;;;;;;;5.80;4.10;;;27.10;60.60;;;;;;5057710;28;20196;-78
2023/06/01 16:21:17;;;;;;;7.10;3.73;;;26.80;62.00;;;;;;5058036;28;20192;-79
2023/06/01 16:23:43;;;;;;;7.87;3.87;;;26.20;62.60;;;;;;5058940;28;20176;-79
2023/06/01 16:26:09;;;;;;;7.63;4.30;;;25.60;65.70;;;;;;5058670;28;20677;-82
2023/06/01 16:28:35;;;;;;;7.77;4.00;;;25.20;64.80;;;;;;5063211;28;20622;-76
2023/06/01 16:31:02;;;;;;;4.97;3.60;;;24.80;65.50;;;;;;5057593;28;20565;-76
2023/06/01 16:33:27;;;;;;;8.13;3.93;;;24.50;65.20;;;;;;5057891;28;20173;-78
2023/06/01 16:35:53;;;;;;;7.60;4.23;;;24.30;66.60;;;;;;5059272;28;20543;-78
2023/06/01 16:38:19;;;;;;;7.33;4.10;;;24.20;67.20;;;;;;5059316;28;20600;-78
2023/06/01 16:40:45;;;;;;;6.33;3.90;;;24.00;68.70;;;;;;5062346;28;20198;-82
2023/06/01 16:43:13;;;;;;;6.33;4.00;;;23.70;66.60;;;;;;5070540;28;20183;-81
2023/06/01 16:45:39;;;;;;;5.57;3.80;;;23.60;67.50;;;;;;5069571;28;20244;-81
2023/06/01 16:48:06;;;;;;;7.07;4.10;;;23.50;69.50;;;;;;5062114;28;20211;-82
2023/06/01 16:50:32;;;;;;;5.80;4.03;;;23.40;66.90;;;;;;5057846;28;20188;-80
2023/06/01 16:52:58;;;;;;;6.80;4.50;;;23.30;68.10;;;;;;5056630;28;20612;-79
2023/06/01 16:55:26;;;;;;;8.33;4.30;;;23.20;68.60;;;;;;5056521;28;20202;-78
2023/06/01 16:57:52;;;;;;;5.67;4.30;;;23.20;68.10;;;;;;5047677;28;20192;-77
2023/06/01 17:00:18;;;;;;;10.77;4.03;;;23.10;69.30;;;;;;5037305;28;20683;-78
2023/06/01 17:02:44;;;;;;;5.97;4.10;;;23.10;67.90;;;;;;5036399;28;20201;-78
2023/06/01 17:05:10;;;;;;;7.70;4.60;;;23.10;68.10;;;;;;5038390;28;20196;-82
2023/06/01 17:07:36;;;;;;;8.07;4.00;;;23.10;68.20;;;;;;5037055;28;20207;-82
2023/06/01 17:10:02;;;;;;;8.03;4.10;;;23.00;68.20;;;;;;5039220;28;20182;-81
2023/06/01 17:12:28;;;;;;;7.47;4.30;;;23.00;68.00;;;;;;5061860;28;20184;-83
2023/06/01 17:14:53;;;;;;;7.37;4.00;;;22.90;71.10;;;;;;5039573;28;20346;-83
2023/06/01 17:17:19;;;;;;;8.40;4.33;;;22.80;68.60;;;;;;5046481;28;20191;-83
2023/06/01 17:19:45;;;;;;;8.60;3.90;;;22.80;69.70;;;;;;5056232;28;20184;-79
2023/06/01 17:22:11;;;;;;;8.93;4.20;;;22.70;69.80;;;;;;5056412;28;20538;-78
2023/06/01 17:24:37;;;;;;;5.77;4.37;;;22.70;69.40;;;;;;5058806;28;20639;-80
2023/06/01 17:27:03;;;;;;;12.47;3.93;;;22.70;69.50;;;;;;5058830;28;20187;-81
2023/06/01 17:29:28;;;;;;;7.83;4.10;;;22.60;71.10;;;;;;5059646;28;20260;-82
2023/06/01 17:31:54;;;;;;;6.40;4.03;;;22.70;72.80;;;;;;5058895;28;20189;-83
2023/06/01 17:34:19;;;;;;;6.70;4.03;;;22.60;70.40;;;;;;5058196;28;20583;-82
2023/06/01 17:36:45;;;;;;;7.33;4.40;;;22.60;71.10;;;;;;5057874;28;20173;-83
2023/06/01 18:12:49;;;;;;;4.57;3.73;;;21.10;84.20;;;;;;5012690;27;4017831;-79
